• Join FlightAware (Why Join?)
  • Login
  • US Flag 
 
10:38PM EST


 

Airport Tracker/Info


-or-


 

Live Flight TrackerFlight Track Log ✈ ASQ5750 ✈ 05-Jul-2013 ✈ KALB - KORD

Flight Track Log - Related Links

Times and Time Zones

All times are in EDT time to prevent confusion due to time zone crossing. See the ASQ5750 flight status page for this flight to view local times or setup timezone preferences in your user account.

Time Position Orientation Groundspeed Altitude Reporting Facility
EDT Latitude Longitude Course Direction KTS MPH feet Rate Location/Type
11:24AM 42.6872 -73.8750 235° Southwest 217 250 4,900  Level Boston Center
11:25AM 42.8059 -74.1410 281° West  Level FlightAware Approximate
11:25AM 42.7244 -73.9042 330° Northwest 231 266 6,400  Level Boston Center
11:26AM 42.8228 -74.2590 281° West  Level FlightAware Approximate
11:26AM 42.7822 -73.9508 329° Northwest 237 273 8,500  Level Boston Center
11:27AM 42.8406 -74.3768 283° West  Level FlightAware Approximate
11:27AM 42.8461 -74.0033 329° Northwest 247 284 10,000  Level Boston Center
11:28AM 42.9142 -74.0589 329° Northwest 285 328 11,900 1,500 Climbing Boston Center
11:29AM 43.0006 -74.1322 328° Northwest 309 356 13,300 1,800 Climbing Boston Center
11:30AM 43.0953 -74.2144 328° Northwest 339 390 15,500 1,620 Climbing Boston Center
11:31AM 43.1206 -74.3289 287° West 299 344 16,900 1,080 Climbing Boston Center
11:32AM 43.1222 -74.4656 271° West 312 359 17,900 1,080 Climbing Boston Center
11:33AM 43.1242 -74.5908 271° West 326 375 19,100 1,200 Climbing Boston Center
11:34AM 43.1278 -74.7217 272° West 339 390 20,300 1,080 Climbing Boston Center
11:35AM 43.1314 -74.8500 272° West 339 390 21,300 840 Climbing Boston Center
11:36AM 43.1350 -74.9808 272° West 345 397 22,000 660 Climbing Boston Center
11:37AM 43.1381 -75.1206 272° West 350 403 22,700 600 Climbing Boston Center
11:38AM 43.1408 -75.2600 272° West 362 417 23,300 600 Climbing Boston Center
11:39AM 43.1456 -75.4056 273° West 374 430 23,900 600 Climbing Boston Center
11:40AM 43.1500 -75.5481 272° West 380 437 24,500 600 Climbing Boston Center
11:41AM 43.1522 -75.6906 271° West 386 444 25,100 600 Climbing Boston Center
11:42AM 43.1564 -75.8386 272° West 386 444 25,700 420 Climbing Boston Center
11:43AM 43.1581 -75.9842 271° West 386 444 26,000 60 Climbing Boston Center
11:45AM 43.1500 -76.2500 268° West 400 460 26,000  Level Toronto Center
11:46AM 43.1500 -76.4167 270° West 400 460 26,000  Level Toronto Center
11:47AM 43.1500 -76.5667 270° West 390 449 26,000  Level Toronto Center
11:48AM 43.1500 -76.7000 270° West 390 449 26,000 300 Level Toronto Center
11:49AM 43.1500 -76.8667 270° West 390 449 26,600 660 Climbing Toronto Center
11:50AM 43.1500 -77.0000 270° West 380 437 27,400 720 Climbing Toronto Center
11:51AM 43.1500 -77.1667 270° West 380 437 28,100 600 Climbing Toronto Center
11:52AM 43.1531 -77.3531 271° West 389 448 28,800 540 Climbing Cleveland Center
11:53AM 43.1297 -77.4967 257° West 389 448 29,300 420 Climbing Cleveland Center
11:54AM 43.1083 -77.6342 258° West 384 442 29,700 300 Climbing Cleveland Center
11:55AM 43.1075 -77.7678 270° West 384 442 30,000 120 Climbing Cleveland Center
11:56AM 43.1069 -77.9186 270° West 391 450 30,000  Level Cleveland Center
11:57AM 43.1081 -78.0694 271° West 396 456 30,000  Level Cleveland Center
11:58AM 43.1053 -78.2286 269° West 406 467 30,000  Level Cleveland Center
11:59AM 43.1061 -78.3822 270° West 406 467 30,000  Level Cleveland Center
12:00PM 43.1069 -78.5386 270° West 411 473 30,000  Level Cleveland Center
12:01PM 43.1056 -78.6922 269° West 411 473 30,000  Level Cleveland Center
12:02PM 43.1058 -78.8514 270° West 411 473 30,000  Level Cleveland Center
12:03PM 43.1000 -78.9667 266° West 420 483 30,000  Level Toronto Center
12:04PM 43.1000 -79.1333 270° West 420 483 30,000  Level Toronto Center
12:05PM 43.0833 -79.2833 261° West 420 483 30,000  Level Toronto Center
12:06PM 43.0833 -79.4333 270° West 420 483 30,000  Level Toronto Center
12:07PM 43.0833 -79.6167 270° West 420 483 30,000  Level Toronto Center
12:08PM 43.0833 -79.7500 270° West 410 472 30,000  Level Toronto Center
12:09PM 43.0833 -79.9000 270° West 410 472 30,000  Level Toronto Center
12:10PM 43.0833 -80.0667 270° West 400 460 30,000  Level Toronto Center
12:11PM 43.0833 -80.2333 270° West 400 460 30,000  Level Toronto Center
12:12PM 43.1000 -80.3667 280° West 400 460 30,000  Level Toronto Center
12:13PM 43.1833 -80.4833 314° West 440 506 30,000  Level Toronto Center
12:14PM 43.2833 -80.6000 320° Northwest 440 506 30,000  Level Toronto Center
12:15PM 43.3667 -80.7167 315° West 440 506 30,000  Level Toronto Center
12:16PM 43.4333 -80.8333 308° West 440 506 30,000  Level Toronto Center
12:17PM 43.4333 -80.9667 270° West 400 460 30,000  Level Toronto Center
12:18PM 43.4167 -81.1333 262° West 390 449 30,000  Level Toronto Center
12:19PM 43.4000 -81.2667 260° West 390 449 30,000  Level Toronto Center
12:20PM 43.3667 -81.4167 253° West 390 449 30,000  Level Toronto Center
12:21PM 43.3500 -81.5667 261° West 390 449 30,000  Level Toronto Center
12:22PM 43.3333 -81.7000 260° West 400 460 30,000  Level Toronto Center
12:23PM 43.3000 -81.8500 253° West 400 460 30,000  Level Toronto Center
12:24PM 43.2667 -82.0000 253° West 400 460 30,000  Level Toronto Center
12:25PM 43.2500 -82.1500 261° West 400 460 30,000  Level Toronto Center
12:26PM 43.2167 -82.2833 251° West 400 460 30,000  Level Toronto Center
12:27PM 43.2000 -82.4500 262° West 400 460 30,000  Level Toronto Center
12:28PM 43.1667 -82.5833 251° West 400 460 30,000  Level Toronto Center
12:29PM 43.1506 -82.7458 262° West 396 456 30,000  Level Cleveland Center
12:30PM 43.1247 -82.8931 257° West 396 456 30,000  Level Cleveland Center
12:31PM 43.0989 -83.0397 256° West 396 456 30,000  Level Cleveland Center
12:32PM 43.0706 -83.1864 255° West 396 456 30,000  Level Cleveland Center
12:33PM 43.0422 -83.3331 255° West 396 456 30,000  Level Cleveland Center
12:34PM 43.0178 -83.4797 257° West 396 456 30,000  Level Cleveland Center
12:35PM 42.9894 -83.6144 254° West 396 456 30,000  Level Cleveland Center
12:36PM 42.9644 -83.7639 257° West 401 461 30,000 -420 Level Cleveland Center
12:37PM 42.9497 -83.9192 263° West 411 473 29,200 -960 Descending Cleveland Center
12:38PM 42.9350 -84.0600 262° West 399 459 28,100 -600 Descending Cleveland Center
12:39PM 42.9222 -84.2042 263° West 394 453 28,000 -60 Descending Cleveland Center
12:40PM 42.9072 -84.3533 262° West 383 441 28,000  Level Cleveland Center
12:41PM 42.8897 -84.4997 261° West 383 441 28,000  Level Cleveland Center
12:42PM 42.8744 -84.6742 263° West 393 452 28,000  Level Chicago Center
12:43PM 42.8575 -84.8267 261° West 403 464 28,000  Level Chicago Center
12:44PM 42.8422 -84.9783 262° West 405 466 28,000  Level Chicago Center
12:45PM 42.8219 -85.1614 261° West 407 468 28,000  Level Chicago Center
12:46PM 42.8061 -85.3156 262° West 409 471 28,000 -540 Level Chicago Center
12:47PM 42.7886 -85.4711 261° West 413 475 27,000 -1,260 Descending Chicago Center
12:49PM 42.7639 -85.6253 258° West 415 478 25,500 -1,500 Descending Chicago Center
12:50PM 42.7358 -85.7753 256° West 409 471 24,000 -1,380 Descending Chicago Center
12:51PM 42.7092 -85.9239 256° West 403 464 22,700 -1,260 Descending Chicago Center
12:52PM 42.6819 -86.0714 256° West 402 463 21,500 -1,200 Descending Chicago Center
12:53PM 42.6547 -86.2186 256° West 400 460 20,300 -1,200 Descending Chicago Center
12:54PM 42.6236 -86.3856 256° West 382 440 19,100 -1,320 Descending Chicago Center
12:55PM 42.5972 -86.5247 256° West 380 437 17,600 -1,560 Descending Chicago Center
12:56PM 42.5722 -86.6578 256° West 368 423 15,900 -1,680 Descending Chicago Center
12:57PM 42.5439 -86.7928 254° West 372 428 14,200 -1,680 Descending Chicago Center
12:58PM 42.5092 -86.9169 249° West 355 409 12,500 -1,740 Descending Chicago Center
12:59PM 42.4783 -87.0314 250° West 324 373 10,700 -1,740 Descending Chicago Center
01:00PM 42.4447 -87.1508 249° West 283 326 9,000 -840 Descending Chicago Center
01:01PM 42.4175 -87.2483 249° West 277 319 9,000 -180 Level Chicago Center
01:02PM 42.3892 -87.3464 249° West 282 325 8,700 -1,020 Descending Chicago Center
01:03PM 42.3639 -87.4372 249° West 266 306 7,000 -840 Descending Chicago Center
01:04PM 42.3261 -87.5250 240° Southwest 273 314 7,000  Level Chicago Center
01:05PM 42.2644 -87.6022 223° Southwest 265 305 7,000 -360 Level Chicago Center
01:06PM 42.2128 -87.6578 219° Southwest 242 278 6,300 -720 Descending Chicago Center